Time;durP1;ratioP1;P1;durP2;ratioP2;P2;SDS_P1;SDS_P2;PMS_P1;PMS_P2;Temp;Humidity;BMP_temperature;BMP_pressure;BME280_temperature;BME280_humidity;BME280_pressure;Samples;Min_cycle;Max_cycle;Signal;HPM_P1;HPM_P2
2022/12/29 00:01:40;;;;;;;6.38;3.80;;;;;;;;;;5035565;28;20024;-76
2022/12/29 00:04:06;;;;;;;8.73;4.28;;;;;;;;;;5038754;28;20030;-74
2022/12/29 00:06:32;;;;;;;8.48;3.90;;;;;;;;;;5040106;28;20038;-75
2022/12/29 00:08:58;;;;;;;7.88;4.32;;;;;;;;;;5043233;28;20034;-75
2022/12/29 00:11:26;;;;;;;5.40;3.97;;;;;;;;;;5043142;28;20036;-75
2022/12/29 00:16:37;;;;;;;8.85;4.72;;;;;;;;;;5041893;28;20040;-76
2022/12/29 00:19:04;;;;;;;6.75;4.30;;;;;;;;;;5040151;28;20215;-76
2022/12/29 00:35:13;;;;;;;7.15;4.13;;;;;;;;;;5053292;28;20088;-75
2022/12/29 00:45:58;;;;;;;11.45;4.47;;;;;;;;;;5051044;28;20449;-77
2022/12/29 00:51:09;;;;;;;8.43;4.25;;;;;;;;;;5033914;28;20080;-75
2022/12/29 00:53:35;;;;;;;9.30;4.40;;;;;;;;;;5033886;28;20034;-76
2022/12/29 00:56:01;;;;;;;6.22;4.30;;;;;;;;;;5033182;28;20025;-75
2022/12/29 00:58:27;;;;;;;6.03;4.22;;;;;;;;;;5034103;28;20025;-75
2022/12/29 01:01:00;;;;;;;8.93;4.38;;;;;;;;;;5032239;28;20073;-76
2022/12/29 01:03:26;;;;;;;9.02;4.63;;;;;;;;;;5028888;28;20105;-77
2022/12/29 01:05:52;;;;;;;8.70;4.43;;;;;;;;;;5041172;28;20030;-74
2022/12/29 01:08:18;;;;;;;8.88;4.13;;;;;;;;;;5041893;28;20022;-76
2022/12/29 01:10:44;;;;;;;5.85;4.35;;;;;;;;;;5033084;28;20100;-76
2022/12/29 01:13:10;;;;;;;7.63;4.63;;;;;;;;;;5033878;28;20025;-74
2022/12/29 01:15:36;;;;;;;6.68;4.15;;;;;;;;;;5032732;28;20065;-76
2022/12/29 01:18:02;;;;;;;7.22;4.25;;;;;;;;;;5033437;28;20037;-75
2022/12/29 01:20:28;;;;;;;9.63;4.15;;;;;;;;;;5033083;28;20022;-77
2022/12/29 01:22:54;;;;;;;7.10;4.03;;;;;;;;;;5033775;28;20071;-76
2022/12/29 01:25:20;;;;;;;5.70;4.10;;;;;;;;;;5036977;28;20025;-76
2022/12/29 01:27:46;;;;;;;6.75;4.28;;;;;;;;;;5037198;28;20029;-76
2022/12/29 01:30:12;;;;;;;8.30;4.00;;;;;;;;;;5037047;28;20036;-76
2022/12/29 01:32:38;;;;;;;5.75;4.57;;;;;;;;;;5037711;28;20026;-76
2022/12/29 01:35:04;;;;;;;6.38;4.22;;;;;;;;;;5037132;28;20049;-76
2022/12/29 01:37:30;;;;;;;9.80;4.57;;;;;;;;;;5035226;28;20037;-76
2022/12/29 01:39:56;;;;;;;5.47;4.13;;;;;;;;;;5037210;28;20475;-76
2022/12/29 01:42:25;;;;;;;7.45;4.38;;;;;;;;;;5037132;28;20413;-75
2022/12/29 01:44:51;;;;;;;6.45;4.72;;;;;;;;;;5037042;28;20018;-74
2022/12/29 01:47:21;;;;;;;7.05;4.70;;;;;;;;;;5035600;28;20037;-76
2022/12/29 01:49:47;;;;;;;7.50;4.90;;;;;;;;;;5037000;28;20041;-75
2022/12/29 01:52:13;;;;;;;6.80;5.15;;;;;;;;;;5042921;28;20075;-76
2022/12/29 01:54:49;;;;;;;6.97;4.72;;;;;;;;;;5043082;28;20026;-76
2022/12/29 01:57:21;;;;;;;8.50;4.55;;;;;;;;;;5034554;28;20117;-76
2022/12/29 01:59:51;;;;;;;8.70;5.03;;;;;;;;;;5036390;28;20031;-75
2022/12/29 02:02:18;;;;;;;8.75;5.07;;;;;;;;;;5036030;28;20387;-76
2022/12/29 02:04:44;;;;;;;9.65;5.80;;;;;;;;;;5036807;28;20029;-76
2022/12/29 02:07:17;;;;;;;8.38;5.20;;;;;;;;;;5036020;28;20025;-75
2022/12/29 02:09:43;;;;;;;8.32;5.63;;;;;;;;;;5036862;28;20036;-75
2022/12/29 02:12:10;;;;;;;7.05;5.82;;;;;;;;;;5038667;28;20029;-74
2022/12/29 02:14:36;;;;;;;8.07;5.80;;;;;;;;;;5032978;28;20514;-75
2022/12/29 02:17:11;;;;;;;6.25;5.50;;;;;;;;;;5035678;28;20030;-75
2022/12/29 02:19:51;;;;;;;7.93;5.82;;;;;;;;;;5036279;28;20022;-75
2022/12/29 02:22:28;;;;;;;6.47;5.32;;;;;;;;;;5035915;28;20033;-75
2022/12/29 02:25:03;;;;;;;7.78;5.63;;;;;;;;;;5034633;28;20459;-75
2022/12/29 02:27:28;;;;;;;15.68;5.43;;;;;;;;;;5034765;28;20075;-76
2022/12/29 02:30:00;;;;;;;9.25;5.28;;;;;;;;;;5035743;28;20026;-75
2022/12/29 02:32:31;;;;;;;9.82;5.65;;;;;;;;;;5035539;28;20033;-76
2022/12/29 02:35:03;;;;;;;11.15;5.80;;;;;;;;;;5034626;28;20029;-77
2022/12/29 02:37:33;;;;;;;7.05;5.03;;;;;;;;;;5036141;28;20030;-77
2022/12/29 02:40:19;;;;;;;7.25;5.10;;;;;;;;;;5036003;28;20017;-75
2022/12/29 02:42:51;;;;;;;6.90;4.82;;;;;;;;;;5036371;28;20053;-75
2022/12/29 02:45:39;;;;;;;6.90;5.05;;;;;;;;;;5038396;28;20022;-75
2022/12/29 02:48:25;;;;;;;7.10;5.25;;;;;;;;;;5037301;28;20036;-75
2022/12/29 02:50:58;;;;;;;4.80;4.30;;;;;;;;;;5036728;28;20410;-75
2022/12/29 02:56:08;;;;;;;9.05;4.68;;;;;;;;;;5035958;28;20084;-74
2022/12/29 02:58:34;;;;;;;7.30;4.90;;;;;;;;;;5035780;28;20449;-77
2022/12/29 03:01:04;;;;;;;5.30;4.30;;;;;;;;;;5035797;28;20053;-75
2022/12/29 03:03:29;;;;;;;7.25;4.88;;;;;;;;;;5037399;28;20025;-76
2022/12/29 03:06:11;;;;;;;8.45;4.47;;;;;;;;;;5036390;28;20044;-75
2022/12/29 03:08:58;;;;;;;8.00;4.50;;;;;;;;;;5036893;28;20101;-75
2022/12/29 03:17:19;;;;;;;9.45;4.10;;;;;;;;;;4997967;28;20070;-74
2022/12/29 03:19:47;;;;;;;11.48;4.80;;;;;;;;;;5039381;28;20057;-75
2022/12/29 03:22:31;;;;;;;10.32;4.07;;;;;;;;;;5033276;28;20033;-74
2022/12/29 03:25:17;;;;;;;8.35;4.30;;;;;;;;;;5034579;28;20021;-74
2022/12/29 03:27:49;;;;;;;5.90;3.72;;;;;;;;;;5032421;28;20029;-75
2022/12/29 03:30:16;;;;;;;4.55;3.63;;;;;;;;;;5034019;28;20049;-75
2022/12/29 03:32:54;;;;;;;4.40;3.47;;;;;;;;;;5034451;28;20532;-74
2022/12/29 03:35:22;;;;;;;6.35;3.55;;;;;;;;;;5035092;28;20052;-77
2022/12/29 03:38:07;;;;;;;5.22;3.50;;;;;;;;;;5034781;28;20043;-76
2022/12/29 03:40:34;;;;;;;5.78;3.40;;;;;;;;;;5033491;28;20491;-77
2022/12/29 03:43:02;;;;;;;8.05;3.65;;;;;;;;;;5033314;28;20512;-76
2022/12/29 03:45:28;;;;;;;5.40;3.42;;;;;;;;;;5033642;28;20036;-76
2022/12/29 03:47:54;;;;;;;3.83;3.30;;;;;;;;;;5034644;28;20033;-76
2022/12/29 03:50:20;;;;;;;3.78;3.33;;;;;;;;;;5039897;28;20125;-78
2022/12/29 03:52:46;;;;;;;5.78;2.90;;;;;;;;;;5051390;28;20036;-75
2022/12/29 03:55:12;;;;;;;4.82;3.20;;;;;;;;;;5052044;28;20025;-77
2022/12/29 03:57:38;;;;;;;7.65;3.40;;;;;;;;;;5054813;28;20022;-76
2022/12/29 04:00:06;;;;;;;7.28;3.00;;;;;;;;;;5056319;28;20041;-79
2022/12/29 04:02:32;;;;;;;10.25;3.22;;;;;;;;;;5056120;28;20017;-78
2022/12/29 04:04:57;;;;;;;4.40;2.95;;;;;;;;;;5055808;28;20083;-77
2022/12/29 04:07:23;;;;;;;4.80;3.05;;;;;;;;;;5048853;28;20101;-74
2022/12/29 04:09:49;;;;;;;3.50;2.95;;;;;;;;;;5045475;28;20033;-75
2022/12/29 04:12:15;;;;;;;4.03;2.70;;;;;;;;;;5048919;28;20040;-75
2022/12/29 04:14:41;;;;;;;6.47;3.20;;;;;;;;;;5039656;28;20061;-75
2022/12/29 04:17:07;;;;;;;3.17;2.75;;;;;;;;;;5033883;28;20030;-76
2022/12/29 04:19:33;;;;;;;3.55;2.65;;;;;;;;;;5034160;28;20022;-76
2022/12/29 04:21:59;;;;;;;4.22;2.40;;;;;;;;;;5034784;28;20036;-76
2022/12/29 04:24:25;;;;;;;7.45;2.28;;;;;;;;;;5039479;28;20029;-78
2022/12/29 04:26:51;;;;;;;3.40;2.35;;;;;;;;;;5055024;28;20020;-78
2022/12/29 04:29:17;;;;;;;4.25;2.30;;;;;;;;;;5045257;28;20065;-77
2022/12/29 04:31:43;;;;;;;5.95;2.28;;;;;;;;;;5032712;28;20040;-76
2022/12/29 04:34:09;;;;;;;3.15;1.90;;;;;;;;;;5031441;28;20025;-76
2022/12/29 04:36:35;;;;;;;4.75;2.20;;;;;;;;;;5032336;28;20029;-76
2022/12/29 04:39:01;;;;;;;3.22;2.05;;;;;;;;;;5032891;28;20103;-74
2022/12/29 04:41:27;;;;;;;4.25;1.73;;;;;;;;;;5032342;28;20032;-74
2022/12/29 04:43:53;;;;;;;2.70;1.98;;;;;;;;;;5031953;28;20141;-75
2022/12/29 04:46:19;;;;;;;2.22;1.63;;;;;;;;;;5034035;28;20071;-78
2022/12/29 04:48:45;;;;;;;3.88;2.00;;;;;;;;;;5036384;28;20021;-78
2022/12/29 04:51:11;;;;;;;2.95;1.83;;;;;;;;;;5037574;28;20025;-78
2022/12/29 04:53:36;;;;;;;2.10;1.90;;;;;;;;;;5038668;28;20090;-78
2022/12/29 04:56:02;;;;;;;4.95;1.90;;;;;;;;;;5037405;28;20041;-77
2022/12/29 04:58:28;;;;;;;2.38;1.70;;;;;;;;;;5039177;28;20029;-77
2022/12/29 05:00:54;;;;;;;4.30;1.90;;;;;;;;;;5042019;28;20029;-77
2022/12/29 05:03:20;;;;;;;2.78;1.80;;;;;;;;;;5041562;28;20033;-78
2022/12/29 05:05:46;;;;;;;3.22;1.90;;;;;;;;;;5040559;28;20064;-78
2022/12/29 05:08:12;;;;;;;3.60;1.65;;;;;;;;;;5042300;28;20055;-79
2022/12/29 05:10:38;;;;;;;2.75;2.00;;;;;;;;;;5047280;28;20029;-78
2022/12/29 05:13:04;;;;;;;2.85;1.63;;;;;;;;;;5037594;28;20112;-78
2022/12/29 05:15:30;;;;;;;5.20;1.70;;;;;;;;;;5035374;28;20029;-78
2022/12/29 05:17:56;;;;;;;2.80;1.90;;;;;;;;;;5037246;28;20025;-78
2022/12/29 05:20:22;;;;;;;3.63;1.98;;;;;;;;;;5044925;28;20382;-78
2022/12/29 05:22:48;;;;;;;2.65;1.98;;;;;;;;;;5036635;28;20028;-79
2022/12/29 05:25:14;;;;;;;1.70;1.60;;;;;;;;;;5037165;28;20029;-78
2022/12/29 05:27:40;;;;;;;2.13;1.67;;;;;;;;;;5035634;28;20083;-78
2022/12/29 05:30:06;;;;;;;2.55;2.03;;;;;;;;;;5037698;28;20033;-77
2022/12/29 05:32:32;;;;;;;3.15;2.10;;;;;;;;;;5037795;28;20049;-77
2022/12/29 05:34:58;;;;;;;2.17;1.92;;;;;;;;;;5039337;28;20034;-78
2022/12/29 05:37:24;;;;;;;3.88;2.00;;;;;;;;;;5038870;28;20057;-77
2022/12/29 05:39:50;;;;;;;3.40;2.47;;;;;;;;;;5037748;28;20025;-77
2022/12/29 05:42:16;;;;;;;2.80;2.28;;;;;;;;;;5039667;28;20049;-78
2022/12/29 05:44:42;;;;;;;2.65;2.33;;;;;;;;;;5043739;28;20044;-78
2022/12/29 05:47:08;;;;;;;3.58;2.55;;;;;;;;;;5043739;28;20030;-77
2022/12/29 05:49:34;;;;;;;5.60;2.25;;;;;;;;;;5052223;28;20037;-76
2022/12/29 05:52:00;;;;;;;3.65;2.35;;;;;;;;;;5050753;28;20045;-78
2022/12/29 05:54:26;;;;;;;3.53;2.55;;;;;;;;;;5048860;28;20112;-77
2022/12/29 05:56:52;;;;;;;5.45;2.50;;;;;;;;;;5047103;28;20034;-78
2022/12/29 05:59:18;;;;;;;5.85;2.63;;;;;;;;;;5049573;28;20053;-77
2022/12/29 06:01:44;;;;;;;6.38;2.55;;;;;;;;;;5051682;28;20045;-79
2022/12/29 06:04:10;;;;;;;9.95;2.10;;;;;;;;;;5058943;28;20029;-79
2022/12/29 06:06:36;;;;;;;3.70;2.17;;;;;;;;;;5059359;28;20032;-79
2022/12/29 06:09:02;;;;;;;4.03;2.00;;;;;;;;;;5058579;28;20034;-78
2022/12/29 06:11:28;;;;;;;3.17;1.92;;;;;;;;;;5057869;28;20021;-78
2022/12/29 06:13:54;;;;;;;7.55;1.85;;;;;;;;;;5057434;28;20030;-78
2022/12/29 06:16:20;;;;;;;3.13;1.77;;;;;;;;;;5053097;28;20036;-78
2022/12/29 06:18:46;;;;;;;3.53;1.80;;;;;;;;;;5044217;28;20433;-78
2022/12/29 06:21:12;;;;;;;3.35;1.90;;;;;;;;;;5046587;28;20018;-77
2022/12/29 06:23:38;;;;;;;3.55;1.70;;;;;;;;;;5044554;28;20049;-76
2022/12/29 06:26:04;;;;;;;5.97;1.83;;;;;;;;;;5063585;28;20029;-76
2022/12/29 06:28:30;;;;;;;3.92;1.70;;;;;;;;;;5037432;28;20022;-78
2022/12/29 06:30:56;;;;;;;3.10;2.13;;;;;;;;;;5037155;28;20033;-75
2022/12/29 06:33:22;;;;;;;3.30;1.50;;;;;;;;;;5035769;28;20077;-75
2022/12/29 06:35:47;;;;;;;4.60;1.70;;;;;;;;;;5039393;28;20480;-77
2022/12/29 06:38:14;;;;;;;5.10;1.63;;;;;;;;;;5041819;28;20322;-75
2022/12/29 06:40:41;;;;;;;5.63;1.98;;;;;;;;;;5050570;28;20109;-73
2022/12/29 06:43:07;;;;;;;5.38;1.60;;;;;;;;;;5032134;28;20053;-76
2022/12/29 06:45:33;;;;;;;2.97;1.30;;;;;;;;;;5033418;28;20371;-77
2022/12/29 06:47:59;;;;;;;5.18;1.67;;;;;;;;;;5027250;28;20036;-77
2022/12/29 06:50:25;;;;;;;7.22;1.75;;;;;;;;;;5025660;28;20121;-77
2022/12/29 06:52:51;;;;;;;4.53;1.90;;;;;;;;;;5033021;28;20357;-77
2022/12/29 06:55:16;;;;;;;5.38;1.70;;;;;;;;;;5029466;28;20391;-76
2022/12/29 06:57:42;;;;;;;1.67;1.27;;;;;;;;;;5036836;28;20479;-77
2022/12/29 07:00:09;;;;;;;5.28;1.80;;;;;;;;;;5053796;28;20009;-77
2022/12/29 07:02:35;;;;;;;2.97;1.65;;;;;;;;;;5041821;28;20140;-76
2022/12/29 07:05:01;;;;;;;5.40;1.90;;;;;;;;;;5035174;28;20053;-76
2022/12/29 07:07:26;;;;;;;2.35;1.48;;;;;;;;;;5019551;28;20398;-77
2022/12/29 07:09:52;;;;;;;2.90;1.67;;;;;;;;;;5028273;28;20064;-78
2022/12/29 07:12:18;;;;;;;3.47;1.92;;;;;;;;;;5035504;28;20525;-77
2022/12/29 07:14:44;;;;;;;3.85;1.63;;;;;;;;;;5039225;28;20619;-77
2022/12/29 07:17:10;;;;;;;4.78;1.90;;;;;;;;;;5041737;28;20032;-77
2022/12/29 07:19:36;;;;;;;3.28;1.50;;;;;;;;;;5028763;28;20372;-77
2022/12/29 07:22:02;;;;;;;2.65;1.40;;;;;;;;;;5023325;28;20054;-74
2022/12/29 07:24:29;;;;;;;4.45;1.60;;;;;;;;;;5029471;28;20026;-76
2022/12/29 07:26:55;;;;;;;4.00;1.55;;;;;;;;;;5031745;28;20085;-77
2022/12/29 07:29:21;;;;;;;3.67;1.75;;;;;;;;;;5030324;28;20033;-75
2022/12/29 07:31:47;;;;;;;7.18;1.90;;;;;;;;;;5025033;28;20108;-76
2022/12/29 07:34:13;;;;;;;4.47;1.45;;;;;;;;;;5027151;28;20025;-76
2022/12/29 07:36:39;;;;;;;8.27;2.08;;;;;;;;;;5030214;28;20030;-76
2022/12/29 07:39:05;;;;;;;5.25;1.83;;;;;;;;;;5018425;28;20030;-82
2022/12/29 07:41:31;;;;;;;5.70;2.15;;;;;;;;;;5017893;28;20030;-76
2022/12/29 07:43:58;;;;;;;4.57;1.85;;;;;;;;;;5018987;28;20025;-77
2022/12/29 07:46:24;;;;;;;7.13;1.88;;;;;;;;;;5026501;28;20144;-79
2022/12/29 07:48:50;;;;;;;7.97;1.98;;;;;;;;;;5024652;28;20099;-75
2022/12/29 07:51:15;;;;;;;3.65;1.73;;;;;;;;;;5018350;28;20041;-76
2022/12/29 07:53:41;;;;;;;5.95;1.90;;;;;;;;;;5020286;28;20108;-78
2022/12/29 07:56:07;;;;;;;5.88;1.70;;;;;;;;;;5023076;28;20060;-77
2022/12/29 07:58:33;;;;;;;4.85;1.70;;;;;;;;;;5021751;28;20030;-78
2022/12/29 08:00:59;;;;;;;6.75;2.28;;;;;;;;;;5021151;28;20061;-79
2022/12/29 08:03:26;;;;;;;8.55;2.22;;;;;;;;;;5018997;28;20025;-78
2022/12/29 08:05:52;;;;;;;6.93;2.00;;;;;;;;;;5016428;28;20053;-82
2022/12/29 08:08:18;;;;;;;3.78;1.80;;;;;;;;;;5022821;28;20179;-78
2022/12/29 08:10:44;;;;;;;2.83;1.90;;;;;;;;;;5024545;28;20033;-77
2022/12/29 08:13:12;;;;;;;3.55;1.40;;;;;;;;;;5023083;28;20026;-77
2022/12/29 08:15:38;;;;;;;8.38;1.95;;;;;;;;;;5032877;28;20030;-78
2022/12/29 08:18:04;;;;;;;3.92;1.50;;;;;;;;;;5022768;28;20026;-79
2022/12/29 08:20:30;;;;;;;5.70;1.58;;;;;;;;;;5016492;28;20018;-79
2022/12/29 08:22:56;;;;;;;5.68;1.52;;;;;;;;;;5015416;28;20252;-76
2022/12/29 08:25:22;;;;;;;4.32;1.50;;;;;;;;;;5016215;28;20022;-78
2022/12/29 08:27:48;;;;;;;4.88;1.65;;;;;;;;;;5017130;28;20021;-78
2022/12/29 08:30:14;;;;;;;6.22;1.60;;;;;;;;;;5015668;28;20483;-78
2022/12/29 08:32:40;;;;;;;2.75;1.10;;;;;;;;;;5017413;28;20050;-73
2022/12/29 08:35:06;;;;;;;7.00;1.50;;;;;;;;;;5014282;28;20513;-77
2022/12/29 08:37:33;;;;;;;3.05;1.13;;;;;;;;;;5011558;28;20100;-76
2022/12/29 08:40:03;;;;;;;5.38;1.58;;;;;;;;;;5014345;28;20022;-78
2022/12/29 08:42:30;;;;;;;3.58;1.30;;;;;;;;;;5018961;28;20014;-78
2022/12/29 08:44:57;;;;;;;6.72;1.60;;;;;;;;;;5017949;28;20022;-76
2022/12/29 08:47:23;;;;;;;5.95;2.05;;;;;;;;;;5018880;28;20025;-76
2022/12/29 08:49:48;;;;;;;7.28;1.50;;;;;;;;;;5014218;28;20073;-76
2022/12/29 08:52:14;;;;;;;5.82;1.55;;;;;;;;;;5016442;28;20034;-76
2022/12/29 08:54:40;;;;;;;11.82;2.28;;;;;;;;;;5019120;28;20049;-76
2022/12/29 08:57:06;;;;;;;4.93;1.63;;;;;;;;;;5022287;28;20045;-75
2022/12/29 08:59:32;;;;;;;3.13;1.42;;;;;;;;;;5021025;28;20054;-76
2022/12/29 09:01:58;;;;;;;6.85;1.50;;;;;;;;;;5016551;28;20122;-77
2022/12/29 09:04:25;;;;;;;7.60;1.48;;;;;;;;;;5016412;28;20037;-76
2022/12/29 09:06:51;;;;;;;4.85;1.45;;;;;;;;;;5016230;28;20026;-77
2022/12/29 09:09:18;;;;;;;6.75;1.45;;;;;;;;;;5019975;28;20036;-78
2022/12/29 09:11:43;;;;;;;5.60;1.70;;;;;;;;;;5019492;28;20514;-78
2022/12/29 09:14:09;;;;;;;8.50;1.98;;;;;;;;;;5017528;28;20030;-78
2022/12/29 09:16:35;;;;;;;6.03;1.42;;;;;;;;;;5018239;28;20018;-76
2022/12/29 09:19:02;;;;;;;7.72;1.65;;;;;;;;;;5026502;28;20340;-76
2022/12/29 09:21:28;;;;;;;11.18;1.90;;;;;;;;;;5025575;28;20552;-76
2022/12/29 09:23:54;;;;;;;8.05;1.83;;;;;;;;;;5014299;28;20065;-76
2022/12/29 09:26:20;;;;;;;6.97;1.63;;;;;;;;;;5016064;28;20029;-77
2022/12/29 09:28:47;;;;;;;3.97;1.63;;;;;;;;;;5015614;28;20029;-76
2022/12/29 09:31:13;;;;;;;6.10;1.70;;;;;;;;;;5023335;28;20018;-76
2022/12/29 09:33:39;;;;;;;5.18;1.70;;;;;;;;;;5035468;28;20034;-76
2022/12/29 09:36:05;;;;;;;12.30;1.92;;;;;;;;;;5028382;28;20029;-75
2022/12/29 09:38:31;;;;;;;10.60;1.88;;;;;;;;;;5017526;28;20065;-74
2022/12/29 09:41:11;;;;;;;6.50;1.58;;;;;;;;;;5036520;28;20033;-74
2022/12/29 09:44:03;;;;;;;10.90;1.85;;;;;;;;;;5037535;28;20026;-76
2022/12/29 09:46:34;;;;;;;9.25;1.50;;;;;;;;;;5008842;28;20069;-76
2022/12/29 09:49:18;;;;;;;6.10;1.60;;;;;;;;;;5038194;28;20026;-76
2022/12/29 09:51:47;;;;;;;10.38;2.10;;;;;;;;;;5037715;28;20044;-76
2022/12/29 09:54:13;;;;;;;9.93;1.98;;;;;;;;;;5037300;28;20021;-77
2022/12/29 09:56:39;;;;;;;16.63;1.85;;;;;;;;;;5036309;28;20025;-76
2022/12/29 09:59:13;;;;;;;9.70;1.90;;;;;;;;;;5037452;28;20482;-76
2022/12/29 10:01:44;;;;;;;13.83;1.70;;;;;;;;;;5036289;28;20021;-76
2022/12/29 10:04:10;;;;;;;8.95;2.10;;;;;;;;;;5039181;28;20022;-76
2022/12/29 10:06:50;;;;;;;14.35;2.47;;;;;;;;;;5042970;28;20033;-76
2022/12/29 10:09:25;;;;;;;11.45;1.95;;;;;;;;;;5036114;28;20120;-76
2022/12/29 10:12:10;;;;;;;14.93;2.20;;;;;;;;;;5038845;28;20033;-77
2022/12/29 10:14:56;;;;;;;10.95;2.35;;;;;;;;;;5034730;28;20033;-76
2022/12/29 10:17:27;;;;;;;7.88;1.70;;;;;;;;;;4997092;28;20091;-76
2022/12/29 10:20:11;;;;;;;10.18;2.50;;;;;;;;;;5046970;28;20059;-75
2022/12/29 10:22:37;;;;;;;10.67;1.57;;;;;;;;;;5047784;28;20109;-76
2022/12/29 10:25:09;;;;;;;14.32;2.25;;;;;;;;;;5045259;28;20052;-77
2022/12/29 10:27:35;;;;;;;9.27;2.28;;;;;;;;;;5046301;28;20526;-77
2022/12/29 10:30:03;;;;;;;14.90;2.47;;;;;;;;;;5047991;28;20051;-74
2022/12/29 10:32:35;;;;;;;14.40;2.58;;;;;;;;;;5048617;28;20022;-77
2022/12/29 10:35:05;;;;;;;15.07;2.60;;;;;;;;;;5047663;28;20021;-77
2022/12/29 10:37:46;;;;;;;9.35;2.55;;;;;;;;;;5051029;28;20028;-76
2022/12/29 10:40:16;;;;;;;10.45;1.73;;;;;;;;;;5052510;28;20021;-75
2022/12/29 10:42:45;;;;;;;17.13;2.60;;;;;;;;;;5049482;28;20025;-76
2022/12/29 10:45:14;;;;;;;10.02;1.80;;;;;;;;;;5049195;28;20385;-76
2022/12/29 10:47:43;;;;;;;11.27;2.10;;;;;;;;;;5036879;28;20112;-77
2022/12/29 10:50:12;;;;;;;10.32;1.85;;;;;;;;;;5035777;28;20048;-77
2022/12/29 10:52:39;;;;;;;13.55;2.00;;;;;;;;;;5035376;28;20026;-76
2022/12/29 10:55:13;;;;;;;12.57;2.10;;;;;;;;;;5035682;28;20085;-77
2022/12/29 10:57:41;;;;;;;11.27;2.13;;;;;;;;;;5035534;28;20123;-77
2022/12/29 11:00:16;;;;;;;14.55;2.60;;;;;;;;;;5035567;28;20065;-76
2022/12/29 11:02:44;;;;;;;15.23;2.67;;;;;;;;;;5036806;28;20382;-76
2022/12/29 11:05:31;;;;;;;9.45;2.40;;;;;;;;;;5036586;28;20021;-76
2022/12/29 11:07:59;;;;;;;18.00;2.20;;;;;;;;;;5037899;28;20048;-78
2022/12/29 11:10:43;;;;;;;13.57;2.35;;;;;;;;;;5039183;28;20491;-77
2022/12/29 11:13:14;;;;;;;14.40;2.13;;;;;;;;;;5043916;28;20032;-79
2022/12/29 11:15:41;;;;;;;9.95;2.05;;;;;;;;;;5036400;28;20116;-77
2022/12/29 11:18:18;;;;;;;10.90;1.83;;;;;;;;;;5037675;28;20030;-77
2022/12/29 11:20:44;;;;;;;11.48;1.95;;;;;;;;;;5037263;28;20387;-77
2022/12/29 11:23:28;;;;;;;13.68;1.92;;;;;;;;;;5036885;28;20041;-77
2022/12/29 11:26:06;;;;;;;15.75;2.28;;;;;;;;;;5036223;28;20029;-77
2022/12/29 11:28:33;;;;;;;15.52;2.05;;;;;;;;;;5041399;28;20026;-77
2022/12/29 11:31:03;;;;;;;17.50;2.30;;;;;;;;;;5043004;28;20112;-78
2022/12/29 11:33:29;;;;;;;14.52;1.92;;;;;;;;;;5044048;28;20025;-77
2022/12/29 11:36:00;;;;;;;14.77;2.25;;;;;;;;;;5043048;28;20025;-76
2022/12/29 11:38:29;;;;;;;13.65;1.90;;;;;;;;;;5043127;28;20063;-76
2022/12/29 11:40:55;;;;;;;20.70;2.70;;;;;;;;;;5041724;28;20022;-77
2022/12/29 11:43:33;;;;;;;10.43;2.08;;;;;;;;;;5039086;28;20047;-76
2022/12/29 11:46:00;;;;;;;13.82;1.90;;;;;;;;;;5040105;28;20018;-77
2022/12/29 11:48:29;;;;;;;8.60;1.88;;;;;;;;;;5049964;28;20032;-79
2022/12/29 11:50:57;;;;;;;5.68;1.27;;;;;;;;;;5045047;28;20038;-75
2022/12/29 11:53:25;;;;;;;8.43;1.65;;;;;;;;;;5041910;28;20514;-76
2022/12/29 11:55:59;;;;;;;6.82;1.42;;;;;;;;;;5037402;28;20087;-76
2022/12/29 11:58:32;;;;;;;9.80;1.40;;;;;;;;;;5035699;28;20025;-76
2022/12/29 12:00:59;;;;;;;8.13;1.25;;;;;;;;;;5036005;28;20048;-76
2022/12/29 12:03:27;;;;;;;14.18;1.98;;;;;;;;;;5036334;28;20083;-76
2022/12/29 12:05:56;;;;;;;8.02;1.50;;;;;;;;;;5052283;28;20064;-77
2022/12/29 12:08:29;;;;;;;6.60;1.42;;;;;;;;;;5047217;28;20125;-77
2022/12/29 12:10:58;;;;;;;10.65;1.88;;;;;;;;;;5034895;28;20052;-76
2022/12/29 12:13:31;;;;;;;10.45;2.08;;;;;;;;;;5039082;28;20096;-77
2022/12/29 12:16:03;;;;;;;7.70;1.65;;;;;;;;;;5039691;28;20036;-75
2022/12/29 12:18:35;;;;;;;12.15;2.40;;;;;;;;;;5036190;28;20052;-77
2022/12/29 12:21:06;;;;;;;15.88;2.42;;;;;;;;;;5035155;28;20025;-77
2022/12/29 12:23:37;;;;;;;12.43;2.42;;;;;;;;;;5036002;28;20030;-77
2022/12/29 12:26:24;;;;;;;12.88;1.90;;;;;;;;;;5037304;28;20474;-79
2022/12/29 12:28:53;;;;;;;12.38;2.50;;;;;;;;;;5039807;28;20056;-77
2022/12/29 12:31:38;;;;;;;13.18;2.45;;;;;;;;;;5039438;28;20093;-79
2022/12/29 12:34:07;;;;;;;13.13;1.90;;;;;;;;;;5038032;28;20025;-76
2022/12/29 12:36:45;;;;;;;13.70;2.63;;;;;;;;;;5041067;28;20029;-77
2022/12/29 12:39:18;;;;;;;11.38;2.70;;;;;;;;;;5039000;28;20463;-77
2022/12/29 12:41:47;;;;;;;10.73;1.65;;;;;;;;;;5040928;28;20025;-77
2022/12/29 12:44:23;;;;;;;12.77;2.25;;;;;;;;;;5035922;28;20025;-77
2022/12/29 12:46:56;;;;;;;15.20;2.10;;;;;;;;;;5040782;28;20037;-76
2022/12/29 12:49:43;;;;;;;15.13;2.05;;;;;;;;;;5040545;28;20101;-77
2022/12/29 12:52:17;;;;;;;15.82;2.60;;;;;;;;;;5036896;28;20033;-77
2022/12/29 12:54:53;;;;;;;17.38;2.20;;;;;;;;;;5037115;28;20457;-77
2022/12/29 12:57:28;;;;;;;14.88;2.58;;;;;;;;;;5036304;28;20025;-77
2022/12/29 13:00:04;;;;;;;22.50;3.33;;;;;;;;;;5045668;28;20082;-78
2022/12/29 13:02:30;;;;;;;11.02;2.20;;;;;;;;;;5034951;28;20025;-77
2022/12/29 13:05:15;;;;;;;18.23;4.63;;;;;;;;;;5035711;28;20022;-78
2022/12/29 13:07:53;;;;;;;17.20;2.60;;;;;;;;;;5034892;28;20036;-78
2022/12/29 13:10:22;;;;;;;13.77;2.92;;;;;;;;;;5035739;28;20483;-77
2022/12/29 13:12:53;;;;;;;17.38;2.75;;;;;;;;;;5034206;28;20041;-78
2022/12/29 13:15:19;;;;;;;19.35;2.50;;;;;;;;;;5035675;28;20028;-77
2022/12/29 13:18:04;;;;;;;13.30;2.70;;;;;;;;;;5036723;28;20061;-77
2022/12/29 13:20:37;;;;;;;14.93;2.33;;;;;;;;;;5037816;28;20030;-77
2022/12/29 13:23:08;;;;;;;13.18;2.08;;;;;;;;;;5038702;28;20029;-78
2022/12/29 13:25:34;;;;;;;15.30;2.90;;;;;;;;;;5047958;28;20080;-77
2022/12/29 13:28:30;;;;;;;10.65;2.03;;;;;;;;;;5052763;28;20029;-79
2022/12/29 13:31:12;;;;;;;11.93;2.30;;;;;;;;;;5021595;28;20041;-77
2022/12/29 13:33:38;;;;;;;14.93;2.92;;;;;;;;;;5045262;28;20037;-76
2022/12/29 13:36:07;;;;;;;11.27;2.10;;;;;;;;;;5045650;28;20029;-76
2022/12/29 13:38:40;;;;;;;17.70;2.25;;;;;;;;;;5048658;28;20041;-78
2022/12/29 13:41:08;;;;;;;14.50;3.38;;;;;;;;;;5049552;28;20044;-77
2022/12/29 13:43:36;;;;;;;23.08;3.05;;;;;;;;;;5052650;28;20030;-76
2022/12/29 13:46:05;;;;;;;13.60;2.83;;;;;;;;;;5055783;28;20296;-75
2022/12/29 13:48:36;;;;;;;16.88;2.50;;;;;;;;;;5049591;28;20089;-76
2022/12/29 13:51:02;;;;;;;25.33;2.92;;;;;;;;;;5056427;28;20030;-76
2022/12/29 13:53:56;;;;;;;24.98;12.43;;;;;;;;;;5054061;28;20036;-76
2022/12/29 13:56:29;;;;;;;16.63;2.50;;;;;;;;;;5050169;28;20021;-77
2022/12/29 13:59:00;;;;;;;14.82;2.60;;;;;;;;;;5033308;28;20026;-76
2022/12/29 14:01:36;;;;;;;13.05;2.15;;;;;;;;;;5033600;28;20034;-76
2022/12/29 14:04:11;;;;;;;15.15;3.25;;;;;;;;;;5032889;28;20057;-77
2022/12/29 14:06:40;;;;;;;10.43;1.88;;;;;;;;;;5036797;28;20021;-76
2022/12/29 14:09:07;;;;;;;12.13;2.47;;;;;;;;;;5043965;28;20021;-77
2022/12/29 14:11:38;;;;;;;10.48;1.83;;;;;;;;;;5033454;28;20030;-77
2022/12/29 14:14:30;;;;;;;13.18;2.30;;;;;;;;;;5032142;28;20033;-76
2022/12/29 14:17:10;;;;;;;12.15;2.10;;;;;;;;;;5035497;28;20052;-76
2022/12/29 14:19:38;;;;;;;15.32;1.98;;;;;;;;;;5026631;28;20409;-77
2022/12/29 14:22:04;;;;;;;16.23;2.33;;;;;;;;;;5031176;28;20018;-76
2022/12/29 14:24:36;;;;;;;14.95;2.20;;;;;;;;;;5038494;28;20027;-77
2022/12/29 14:27:14;;;;;;;13.23;2.00;;;;;;;;;;5039424;28;20033;-75
2022/12/29 14:29:40;;;;;;;12.60;2.47;;;;;;;;;;5025750;28;20426;-78
2022/12/29 14:32:24;;;;;;;10.75;1.88;;;;;;;;;;5026260;28;20033;-76
2022/12/29 14:34:51;;;;;;;11.00;2.27;;;;;;;;;;5039282;28;20036;-77
2022/12/29 14:37:38;;;;;;;12.98;2.72;;;;;;;;;;5043013;28;20289;-76
2022/12/29 14:40:20;;;;;;;14.13;1.98;;;;;;;;;;5044566;28;20096;-76
2022/12/29 14:42:46;;;;;;;14.70;2.17;;;;;;;;;;5068060;28;20029;-76
2022/12/29 14:45:16;;;;;;;8.80;1.92;;;;;;;;;;5077968;28;20033;-76
2022/12/29 14:47:52;;;;;;;14.02;2.42;;;;;;;;;;5046726;28;20091;-77
2022/12/29 14:50:22;;;;;;;24.02;3.72;;;;;;;;;;5043110;28;20065;-77
2022/12/29 14:52:50;;;;;;;24.63;6.88;;;;;;;;;;5042847;28;20025;-77
2022/12/29 14:55:16;;;;;;;18.60;2.83;;;;;;;;;;5039508;28;20033;-75
2022/12/29 14:57:43;;;;;;;15.45;3.47;;;;;;;;;;5036019;28;20032;-76
2022/12/29 15:00:29;;;;;;;13.00;2.97;;;;;;;;;;5048223;28;20037;-77
2022/12/29 15:03:06;;;;;;;19.58;2.67;;;;;;;;;;5040353;28;20025;-77
2022/12/29 15:05:43;;;;;;;17.35;3.03;;;;;;;;;;5021498;28;20026;-78
2022/12/29 15:08:09;;;;;;;17.25;2.22;;;;;;;;;;5033964;28;20033;-77
2022/12/29 15:10:39;;;;;;;18.55;2.40;;;;;;;;;;5038057;28;20084;-77
2022/12/29 15:13:06;;;;;;;20.50;2.78;;;;;;;;;;5048176;28;20056;-77
2022/12/29 15:15:37;;;;;;;12.60;3.35;;;;;;;;;;5038085;28;20036;-77
2022/12/29 15:18:22;;;;;;;18.92;3.88;;;;;;;;;;5043683;28;20029;-77
2022/12/29 15:20:51;;;;;;;16.38;2.90;;;;;;;;;;5035000;28;20057;-79
2022/12/29 15:23:17;;;;;;;26.40;8.77;;;;;;;;;;5045379;28;20021;-79
2022/12/29 15:25:48;;;;;;;17.58;4.22;;;;;;;;;;5036138;28;20026;-78
2022/12/29 15:28:14;;;;;;;24.33;4.00;;;;;;;;;;5035747;28;20048;-79